»·PEaware :: N583SC KDAG-KSBD

N583SC :: KDAG-KSBD

FLIGHT INFORMATION

Flight Status: Arrived
Operator: Privately registered:
United States
More flights under this callsign
Pilot: Scott G. (88)
Aircraft: CESSNA 172 SKYHAWK
(C172)
More flights by this aircraft type
Origin: KDAG Barstow-Daggett
United States
Destination: KSBD San Bernardino Intl
United States
More flights between these airports :: More routes between these airports
Route: APLES V442 CAPTZ DCT
File this flight plan on PilotEdge
Remarks:
Altitude:
(Current/Filed)
8,500ft
Speed:
(Current/Filed)
110kts
Departed: 20-Dec-17 10:23 AM
Arrived: 20-Dec-17 11:03 AM
Distance/Time
Traveled:
50nm/0:40
Distance/Time
To Go:
Arrived

Flight Plot

Page will automatically refresh every two minutes.

Flight plan parsing failed; only flown route is shown


Map Options




Map Legend


Flown Route
Filed Route
Departure Airport
Arrival Airport
Navaid (VOR, NDB)
Fix

Horizontal Profiles

Position Reports

Time Latitude Longitude Heading Altitude Ground
Speed
20-Dec-17 10:17 34.855753 -116.791095 143 1929ft 0kts
20-Dec-17 10:18 34.855753 -116.791095 143 1929ft 0kts
20-Dec-17 10:19 34.855753 -116.791095 143 1929ft 0kts
20-Dec-17 10:20 34.855753 -116.791095 143 1929ft 0kts
20-Dec-17 10:21 34.855753 -116.791095 143 1929ft 0kts
20-Dec-17 10:22 34.855709 -116.791065 155 1929ft 1kts
20-Dec-17 10:23 34.855877 -116.789038 49 1929ft 20kts
20-Dec-17 10:24 34.860422 -116.782281 64 1929ft 12kts
20-Dec-17 10:25 34.860233 -116.781716 138 1929ft 0kts
20-Dec-17 10:26 34.860233 -116.781716 138 1929ft 0kts
20-Dec-17 10:27 34.860233 -116.781716 138 1929ft 0kts
20-Dec-17 10:28 34.859554 -116.781483 228 1929ft 2kts
20-Dec-17 10:29 34.852039 -116.791401 229 2248ft 70kts
20-Dec-17 10:30 34.843021 -116.801782 226 2764ft 70kts
20-Dec-17 10:31 34.827633 -116.817395 224 3474ft 78kts
20-Dec-17 10:32 34.810476 -116.832033 225 4186ft 79kts
20-Dec-17 10:33 34.792982 -116.848768 226 4890ft 80kts
20-Dec-17 10:34 34.776294 -116.866435 230 5591ft 78kts
20-Dec-17 10:35 34.760916 -116.884299 233 6263ft 77kts
20-Dec-17 10:36 34.743931 -116.905129 232 6554ft 101kts
20-Dec-17 10:37 34.723546 -116.930147 232 6553ft 104kts
20-Dec-17 10:38 34.703650 -116.954859 233 6552ft 100kts
20-Dec-17 10:39 34.684072 -116.979237 232 6553ft 103kts
20-Dec-17 10:40 34.663924 -117.004334 233 6553ft 103kts
20-Dec-17 10:41 34.644142 -117.028953 233 6554ft 103kts
20-Dec-17 10:42 34.624156 -117.053854 233 6552ft 102kts
20-Dec-17 10:43 34.604297 -117.078573 233 6552ft 102kts
20-Dec-17 10:44 34.584065 -117.103756 233 6470ft 103kts
20-Dec-17 10:45 34.564418 -117.128498 234 6472ft 101kts
20-Dec-17 10:46 34.554381 -117.156757 240 6487ft 100kts
20-Dec-17 10:47 34.531309 -117.178894 225 6508ft 108kts
20-Dec-17 10:48 34.509205 -117.203074 235 6528ft 107kts
20-Dec-17 10:49 34.489005 -117.230041 237 6544ft 108kts
20-Dec-17 10:50 34.469404 -117.256741 237 6557ft 110kts
20-Dec-17 10:51 34.449022 -117.284535 237 6568ft 111kts
20-Dec-17 10:52 34.428158 -117.312973 237 6530ft 114kts
20-Dec-17 10:53 34.407211 -117.341479 237 6533ft 113kts
20-Dec-17 10:54 34.386288 -117.369952 237 6534ft 113kts
20-Dec-17 10:55 34.365637 -117.398017 237 6535ft 110kts
20-Dec-17 10:56 34.344872 -117.424838 215 6535ft 115kts
20-Dec-17 10:57 34.310975 -117.424492 185 6536ft 123kts
20-Dec-17 10:58 34.275691 -117.423041 185 6222ft 136kts
20-Dec-17 10:59 34.237686 -117.422783 185 5467ft 134kts
20-Dec-17 11:00 34.212541 -117.390375 125 4458ft 140kts
20-Dec-17 11:01 34.187747 -117.355692 131 3405ft 134kts
20-Dec-17 11:02 34.162731 -117.325192 135 2443ft 121kts
20-Dec-17 11:03 34.139571 -117.297782 135 1918ft 106kts
20-Dec-17 11:04 34.119715 -117.274018 135 1919ft 99kts
20-Dec-17 11:05 34.120227 -117.246591 70 1924ft 74kts
20-Dec-17 11:06 34.125320 -117.224047 74 1921ft 71kts
20-Dec-17 11:07 34.117120 -117.209119 172 1740ft 66kts
20-Dec-17 11:08 34.101488 -117.213763 246 1363ft 62kts
20-Dec-17 11:09 34.099166 -117.225055 290 1161ft 0kts
20-Dec-17 11:10 34.099288 -117.225470 290 1161ft 11kts
20-Dec-17 11:11 34.101353 -117.225025 351 1161ft 13kts
20-Dec-17 11:12 34.101949 -117.225110 60 1161ft 0kts
20-Dec-17 11:13 34.101949 -117.225110 60 1161ft 0kts

Navigation Log

Ident Type
Flight plan parsing failed, navigation log unavailable